sensor_id;sensor_type;location;lat;lon;timestamp;P1;durP1;ratioP1;P2;durP2;ratioP2
35530;SDS011;21637;53.352;-6.356;2024-03-07T00:00:34;13.05;;;2.33;;
35530;SDS011;21637;53.352;-6.356;2024-03-07T00:03:00;13.55;;;2.85;;
35530;SDS011;21637;53.352;-6.356;2024-03-07T00:05:26;15.73;;;3.00;;
35530;SDS011;21637;53.352;-6.356;2024-03-07T00:07:53;18.55;;;2.80;;
35530;SDS011;21637;53.352;-6.356;2024-03-07T00:10:18;17.73;;;3.67;;
35530;SDS011;21637;53.352;-6.356;2024-03-07T00:12:46;15.48;;;3.47;;
35530;SDS011;21637;53.352;-6.356;2024-03-07T00:15:13;15.25;;;2.90;;
35530;SDS011;21637;53.352;-6.356;2024-03-07T00:17:40;11.10;;;3.00;;
35530;SDS011;21637;53.352;-6.356;2024-03-07T00:20:06;11.35;;;2.83;;
35530;SDS011;21637;53.352;-6.356;2024-03-07T00:22:39;15.15;;;2.67;;
35530;SDS011;21637;53.352;-6.356;2024-03-07T00:25:08;17.65;;;2.90;;
35530;SDS011;21637;53.352;-6.356;2024-03-07T00:27:34;11.85;;;2.78;;
35530;SDS011;21637;53.352;-6.356;2024-03-07T00:30:01;18.35;;;3.42;;
35530;SDS011;21637;53.352;-6.356;2024-03-07T00:32:27;20.00;;;4.05;;
35530;SDS011;21637;53.352;-6.356;2024-03-07T00:34:55;12.85;;;2.85;;
35530;SDS011;21637;53.352;-6.356;2024-03-07T00:37:22;23.50;;;4.50;;
35530;SDS011;21637;53.352;-6.356;2024-03-07T00:39:49;17.80;;;3.90;;
35530;SDS011;21637;53.352;-6.356;2024-03-07T00:42:15;18.60;;;3.47;;
35530;SDS011;21637;53.352;-6.356;2024-03-07T00:44:42;17.77;;;2.88;;
35530;SDS011;21637;53.352;-6.356;2024-03-07T00:47:08;19.55;;;3.20;;
35530;SDS011;21637;53.352;-6.356;2024-03-07T00:49:34;19.83;;;3.50;;
35530;SDS011;21637;53.352;-6.356;2024-03-07T00:52:00;15.02;;;2.85;;
35530;SDS011;21637;53.352;-6.356;2024-03-07T00:54:26;14.27;;;2.97;;
35530;SDS011;21637;53.352;-6.356;2024-03-07T00:56:51;13.77;;;2.78;;
35530;SDS011;21637;53.352;-6.356;2024-03-07T00:59:18;15.43;;;2.80;;
35530;SDS011;21637;53.352;-6.356;2024-03-07T01:01:44;15.10;;;2.95;;
35530;SDS011;21637;53.352;-6.356;2024-03-07T01:04:10;17.60;;;3.17;;
35530;SDS011;21637;53.352;-6.356;2024-03-07T01:06:36;13.57;;;2.47;;
35530;SDS011;21637;53.352;-6.356;2024-03-07T01:09:03;23.65;;;3.17;;
35530;SDS011;21637;53.352;-6.356;2024-03-07T01:11:29;23.77;;;3.35;;
35530;SDS011;21637;53.352;-6.356;2024-03-07T01:13:55;15.55;;;2.85;;
35530;SDS011;21637;53.352;-6.356;2024-03-07T01:16:21;14.30;;;2.65;;
35530;SDS011;21637;53.352;-6.356;2024-03-07T01:18:47;21.45;;;3.00;;
35530;SDS011;21637;53.352;-6.356;2024-03-07T01:21:14;18.17;;;3.00;;
35530;SDS011;21637;53.352;-6.356;2024-03-07T01:23:40;17.92;;;3.60;;
35530;SDS011;21637;53.352;-6.356;2024-03-07T01:26:06;14.55;;;2.97;;
35530;SDS011;21637;53.352;-6.356;2024-03-07T01:28:33;23.80;;;3.47;;
35530;SDS011;21637;53.352;-6.356;2024-03-07T01:30:59;16.83;;;2.80;;
35530;SDS011;21637;53.352;-6.356;2024-03-07T01:33:25;18.58;;;3.72;;
35530;SDS011;21637;53.352;-6.356;2024-03-07T01:35:52;17.90;;;3.22;;
35530;SDS011;21637;53.352;-6.356;2024-03-07T01:38:17;17.65;;;3.13;;
35530;SDS011;21637;53.352;-6.356;2024-03-07T01:40:43;15.43;;;3.13;;
35530;SDS011;21637;53.352;-6.356;2024-03-07T01:43:10;23.88;;;3.47;;
35530;SDS011;21637;53.352;-6.356;2024-03-07T01:45:39;16.00;;;3.15;;
35530;SDS011;21637;53.352;-6.356;2024-03-07T01:48:05;19.98;;;2.95;;
35530;SDS011;21637;53.352;-6.356;2024-03-07T01:50:34;21.92;;;3.13;;
35530;SDS011;21637;53.352;-6.356;2024-03-07T01:53:03;17.13;;;3.40;;
35530;SDS011;21637;53.352;-6.356;2024-03-07T01:55:31;19.42;;;2.90;;
35530;SDS011;21637;53.352;-6.356;2024-03-07T01:57:59;17.27;;;3.58;;
35530;SDS011;21637;53.352;-6.356;2024-03-07T02:00:27;20.35;;;2.65;;
35530;SDS011;21637;53.352;-6.356;2024-03-07T02:02:53;17.45;;;3.88;;
35530;SDS011;21637;53.352;-6.356;2024-03-07T02:05:19;17.58;;;3.13;;
35530;SDS011;21637;53.352;-6.356;2024-03-07T02:07:46;17.33;;;3.10;;
35530;SDS011;21637;53.352;-6.356;2024-03-07T02:10:12;22.60;;;3.33;;
35530;SDS011;21637;53.352;-6.356;2024-03-07T02:12:38;15.55;;;2.95;;
35530;SDS011;21637;53.352;-6.356;2024-03-07T02:15:05;14.75;;;2.85;;
35530;SDS011;21637;53.352;-6.356;2024-03-07T02:17:30;18.17;;;3.60;;
35530;SDS011;21637;53.352;-6.356;2024-03-07T02:19:57;15.85;;;3.15;;
35530;SDS011;21637;53.352;-6.356;2024-03-07T02:22:23;23.80;;;3.70;;
35530;SDS011;21637;53.352;-6.356;2024-03-07T02:24:51;15.20;;;3.50;;
35530;SDS011;21637;53.352;-6.356;2024-03-07T02:27:18;22.52;;;2.90;;
35530;SDS011;21637;53.352;-6.356;2024-03-07T02:29:43;20.65;;;3.50;;
35530;SDS011;21637;53.352;-6.356;2024-03-07T02:32:09;21.13;;;4.10;;
35530;SDS011;21637;53.352;-6.356;2024-03-07T02:34:36;26.88;;;3.88;;
35530;SDS011;21637;53.352;-6.356;2024-03-07T02:37:02;27.00;;;3.60;;
35530;SDS011;21637;53.352;-6.356;2024-03-07T02:39:28;15.98;;;3.03;;
35530;SDS011;21637;53.352;-6.356;2024-03-07T02:41:54;16.95;;;3.28;;
35530;SDS011;21637;53.352;-6.356;2024-03-07T02:44:19;18.58;;;3.50;;
35530;SDS011;21637;53.352;-6.356;2024-03-07T02:46:45;21.50;;;3.88;;
35530;SDS011;21637;53.352;-6.356;2024-03-07T02:49:13;16.88;;;3.20;;
35530;SDS011;21637;53.352;-6.356;2024-03-07T02:51:39;20.25;;;3.45;;
35530;SDS011;21637;53.352;-6.356;2024-03-07T02:54:07;17.42;;;3.72;;
35530;SDS011;21637;53.352;-6.356;2024-03-07T02:56:33;19.95;;;3.30;;
35530;SDS011;21637;53.352;-6.356;2024-03-07T02:58:59;18.73;;;3.80;;
35530;SDS011;21637;53.352;-6.356;2024-03-07T03:01:24;17.10;;;3.42;;
35530;SDS011;21637;53.352;-6.356;2024-03-07T03:03:50;22.77;;;3.33;;
35530;SDS011;21637;53.352;-6.356;2024-03-07T03:06:16;17.63;;;3.08;;
35530;SDS011;21637;53.352;-6.356;2024-03-07T03:08:45;18.20;;;3.72;;
35530;SDS011;21637;53.352;-6.356;2024-03-07T03:11:11;17.67;;;3.75;;
35530;SDS011;21637;53.352;-6.356;2024-03-07T03:13:38;19.88;;;3.92;;
35530;SDS011;21637;53.352;-6.356;2024-03-07T03:16:05;12.63;;;3.10;;
35530;SDS011;21637;53.352;-6.356;2024-03-07T03:18:34;15.55;;;3.25;;
35530;SDS011;21637;53.352;-6.356;2024-03-07T03:21:01;11.88;;;3.92;;
35530;SDS011;21637;53.352;-6.356;2024-03-07T03:23:27;17.13;;;3.40;;
35530;SDS011;21637;53.352;-6.356;2024-03-07T03:25:53;10.15;;;3.10;;
35530;SDS011;21637;53.352;-6.356;2024-03-07T03:28:20;16.40;;;3.28;;
35530;SDS011;21637;53.352;-6.356;2024-03-07T03:30:46;15.27;;;3.38;;
35530;SDS011;21637;53.352;-6.356;2024-03-07T03:33:13;14.30;;;3.55;;
35530;SDS011;21637;53.352;-6.356;2024-03-07T03:35:39;19.02;;;3.65;;
35530;SDS011;21637;53.352;-6.356;2024-03-07T03:38:05;16.38;;;3.72;;
35530;SDS011;21637;53.352;-6.356;2024-03-07T03:40:32;13.75;;;3.78;;
35530;SDS011;21637;53.352;-6.356;2024-03-07T03:42:59;12.40;;;2.97;;
35530;SDS011;21637;53.352;-6.356;2024-03-07T03:45:25;25.33;;;4.13;;
35530;SDS011;21637;53.352;-6.356;2024-03-07T03:47:52;17.00;;;4.32;;
35530;SDS011;21637;53.352;-6.356;2024-03-07T03:50:18;18.13;;;3.63;;
35530;SDS011;21637;53.352;-6.356;2024-03-07T03:52:44;19.10;;;4.25;;
35530;SDS011;21637;53.352;-6.356;2024-03-07T03:55:10;22.08;;;4.57;;
35530;SDS011;21637;53.352;-6.356;2024-03-07T03:57:40;20.08;;;3.40;;
35530;SDS011;21637;53.352;-6.356;2024-03-07T04:00:07;23.33;;;4.15;;
35530;SDS011;21637;53.352;-6.356;2024-03-07T04:02:45;24.08;;;3.70;;
35530;SDS011;21637;53.352;-6.356;2024-03-07T04:05:17;20.27;;;3.60;;
35530;SDS011;21637;53.352;-6.356;2024-03-07T04:07:45;19.45;;;3.75;;
35530;SDS011;21637;53.352;-6.356;2024-03-07T04:10:11;15.65;;;3.00;;
35530;SDS011;21637;53.352;-6.356;2024-03-07T04:12:38;23.00;;;4.18;;
35530;SDS011;21637;53.352;-6.356;2024-03-07T04:15:09;24.77;;;3.90;;
35530;SDS011;21637;53.352;-6.356;2024-03-07T04:17:37;26.85;;;4.18;;
35530;SDS011;21637;53.352;-6.356;2024-03-07T04:20:03;24.25;;;3.80;;
35530;SDS011;21637;53.352;-6.356;2024-03-07T04:22:31;22.73;;;4.05;;
35530;SDS011;21637;53.352;-6.356;2024-03-07T04:25:00;23.13;;;3.78;;
35530;SDS011;21637;53.352;-6.356;2024-03-07T04:27:27;20.05;;;3.65;;
35530;SDS011;21637;53.352;-6.356;2024-03-07T04:29:53;17.65;;;3.55;;
35530;SDS011;21637;53.352;-6.356;2024-03-07T04:32:19;23.75;;;4.00;;
35530;SDS011;21637;53.352;-6.356;2024-03-07T04:34:46;24.65;;;3.67;;
35530;SDS011;21637;53.352;-6.356;2024-03-07T04:37:12;22.85;;;3.90;;
35530;SDS011;21637;53.352;-6.356;2024-03-07T04:39:40;17.77;;;3.60;;
35530;SDS011;21637;53.352;-6.356;2024-03-07T04:42:06;19.60;;;4.63;;
35530;SDS011;21637;53.352;-6.356;2024-03-07T04:44:34;22.83;;;3.80;;
35530;SDS011;21637;53.352;-6.356;2024-03-07T04:47:02;24.33;;;4.30;;
35530;SDS011;21637;53.352;-6.356;2024-03-07T04:49:29;19.45;;;3.80;;
35530;SDS011;21637;53.352;-6.356;2024-03-07T04:51:59;18.27;;;3.92;;
35530;SDS011;21637;53.352;-6.356;2024-03-07T04:54:26;21.55;;;3.75;;
35530;SDS011;21637;53.352;-6.356;2024-03-07T04:56:53;18.80;;;3.65;;
35530;SDS011;21637;53.352;-6.356;2024-03-07T04:59:19;20.92;;;3.30;;
35530;SDS011;21637;53.352;-6.356;2024-03-07T05:01:46;19.73;;;3.08;;
35530;SDS011;21637;53.352;-6.356;2024-03-07T05:04:13;21.35;;;3.17;;
35530;SDS011;21637;53.352;-6.356;2024-03-07T05:06:39;20.45;;;4.07;;
35530;SDS011;21637;53.352;-6.356;2024-03-07T05:09:06;14.40;;;3.30;;
35530;SDS011;21637;53.352;-6.356;2024-03-07T05:11:33;14.48;;;3.70;;
35530;SDS011;21637;53.352;-6.356;2024-03-07T05:14:00;21.50;;;4.20;;
35530;SDS011;21637;53.352;-6.356;2024-03-07T05:16:27;14.07;;;2.97;;
35530;SDS011;21637;53.352;-6.356;2024-03-07T05:18:53;13.15;;;3.33;;
35530;SDS011;21637;53.352;-6.356;2024-03-07T05:21:23;13.90;;;3.08;;
35530;SDS011;21637;53.352;-6.356;2024-03-07T05:24:01;17.33;;;3.65;;
35530;SDS011;21637;53.352;-6.356;2024-03-07T05:26:28;19.73;;;3.50;;
35530;SDS011;21637;53.352;-6.356;2024-03-07T05:29:05;14.60;;;3.55;;
35530;SDS011;21637;53.352;-6.356;2024-03-07T05:31:35;18.58;;;3.10;;
35530;SDS011;21637;53.352;-6.356;2024-03-07T05:34:02;16.08;;;3.88;;
35530;SDS011;21637;53.352;-6.356;2024-03-07T05:36:30;23.13;;;3.85;;
35530;SDS011;21637;53.352;-6.356;2024-03-07T05:38:57;20.70;;;3.78;;
35530;SDS011;21637;53.352;-6.356;2024-03-07T05:41:23;15.77;;;3.22;;
35530;SDS011;21637;53.352;-6.356;2024-03-07T05:43:49;17.77;;;3.45;;
35530;SDS011;21637;53.352;-6.356;2024-03-07T05:46:16;18.05;;;3.22;;
35530;SDS011;21637;53.352;-6.356;2024-03-07T05:48:42;16.65;;;3.13;;
35530;SDS011;21637;53.352;-6.356;2024-03-07T05:51:11;24.02;;;4.35;;
35530;SDS011;21637;53.352;-6.356;2024-03-07T05:53:36;17.75;;;3.88;;
35530;SDS011;21637;53.352;-6.356;2024-03-07T05:56:02;14.88;;;3.63;;
35530;SDS011;21637;53.352;-6.356;2024-03-07T05:58:29;19.60;;;4.07;;
35530;SDS011;21637;53.352;-6.356;2024-03-07T06:00:54;18.85;;;3.70;;
35530;SDS011;21637;53.352;-6.356;2024-03-07T06:03:20;17.65;;;3.85;;
35530;SDS011;21637;53.352;-6.356;2024-03-07T06:05:46;22.05;;;4.25;;
35530;SDS011;21637;53.352;-6.356;2024-03-07T06:08:16;20.05;;;3.85;;
35530;SDS011;21637;53.352;-6.356;2024-03-07T06:10:43;20.15;;;4.05;;
35530;SDS011;21637;53.352;-6.356;2024-03-07T06:13:13;11.40;;;3.70;;
35530;SDS011;21637;53.352;-6.356;2024-03-07T06:15:42;19.67;;;4.47;;
35530;SDS011;21637;53.352;-6.356;2024-03-07T06:18:10;14.40;;;3.38;;
35530;SDS011;21637;53.352;-6.356;2024-03-07T06:20:38;18.42;;;3.58;;
35530;SDS011;21637;53.352;-6.356;2024-03-07T06:23:06;16.95;;;3.80;;
35530;SDS011;21637;53.352;-6.356;2024-03-07T06:25:32;18.60;;;4.55;;
35530;SDS011;21637;53.352;-6.356;2024-03-07T06:28:18;20.58;;;3.95;;
35530;SDS011;21637;53.352;-6.356;2024-03-07T06:30:44;13.57;;;3.58;;
35530;SDS011;21637;53.352;-6.356;2024-03-07T06:33:11;17.70;;;4.03;;
35530;SDS011;21637;53.352;-6.356;2024-03-07T06:35:38;20.73;;;4.40;;
35530;SDS011;21637;53.352;-6.356;2024-03-07T06:38:08;18.35;;;3.78;;
35530;SDS011;21637;53.352;-6.356;2024-03-07T06:40:35;13.73;;;4.30;;
35530;SDS011;21637;53.352;-6.356;2024-03-07T06:43:02;12.95;;;3.75;;
35530;SDS011;21637;53.352;-6.356;2024-03-07T06:45:37;22.20;;;4.10;;
35530;SDS011;21637;53.352;-6.356;2024-03-07T06:48:04;13.52;;;4.20;;
35530;SDS011;21637;53.352;-6.356;2024-03-07T06:50:33;18.73;;;4.03;;
35530;SDS011;21637;53.352;-6.356;2024-03-07T06:53:00;10.57;;;3.55;;
35530;SDS011;21637;53.352;-6.356;2024-03-07T06:55:26;18.60;;;4.35;;
35530;SDS011;21637;53.352;-6.356;2024-03-07T06:57:53;14.07;;;3.85;;
35530;SDS011;21637;53.352;-6.356;2024-03-07T07:00:19;24.13;;;5.18;;
35530;SDS011;21637;53.352;-6.356;2024-03-07T07:02:46;12.77;;;4.10;;
35530;SDS011;21637;53.352;-6.356;2024-03-07T07:05:12;16.50;;;4.32;;
35530;SDS011;21637;53.352;-6.356;2024-03-07T07:07:41;17.23;;;4.30;;
35530;SDS011;21637;53.352;-6.356;2024-03-07T07:10:07;15.80;;;4.35;;
35530;SDS011;21637;53.352;-6.356;2024-03-07T07:12:39;15.95;;;5.38;;
35530;SDS011;21637;53.352;-6.356;2024-03-07T07:15:05;17.15;;;4.00;;
35530;SDS011;21637;53.352;-6.356;2024-03-07T07:17:31;14.57;;;5.15;;
35530;SDS011;21637;53.352;-6.356;2024-03-07T07:19:57;17.92;;;4.70;;
35530;SDS011;21637;53.352;-6.356;2024-03-07T07:22:24;9.85;;;4.22;;
35530;SDS011;21637;53.352;-6.356;2024-03-07T07:24:50;15.13;;;5.10;;
35530;SDS011;21637;53.352;-6.356;2024-03-07T07:27:16;16.25;;;5.10;;
35530;SDS011;21637;53.352;-6.356;2024-03-07T07:29:43;20.00;;;5.13;;
35530;SDS011;21637;53.352;-6.356;2024-03-07T07:32:09;15.30;;;4.65;;
35530;SDS011;21637;53.352;-6.356;2024-03-07T07:34:37;14.45;;;5.15;;
35530;SDS011;21637;53.352;-6.356;2024-03-07T07:37:04;12.02;;;4.97;;
35530;SDS011;21637;53.352;-6.356;2024-03-07T07:39:30;13.88;;;4.50;;
35530;SDS011;21637;53.352;-6.356;2024-03-07T07:41:56;15.15;;;4.85;;
35530;SDS011;21637;53.352;-6.356;2024-03-07T07:44:22;17.27;;;4.78;;
35530;SDS011;21637;53.352;-6.356;2024-03-07T07:46:48;13.85;;;4.15;;
35530;SDS011;21637;53.352;-6.356;2024-03-07T07:49:14;14.55;;;4.38;;
35530;SDS011;21637;53.352;-6.356;2024-03-07T07:51:41;16.77;;;4.93;;
35530;SDS011;21637;53.352;-6.356;2024-03-07T07:54:07;14.20;;;4.63;;
35530;SDS011;21637;53.352;-6.356;2024-03-07T07:56:34;19.65;;;5.28;;
35530;SDS011;21637;53.352;-6.356;2024-03-07T07:59:00;19.35;;;5.13;;
35530;SDS011;21637;53.352;-6.356;2024-03-07T08:01:29;9.95;;;4.45;;
35530;SDS011;21637;53.352;-6.356;2024-03-07T08:03:55;15.68;;;5.70;;
35530;SDS011;21637;53.352;-6.356;2024-03-07T08:06:21;17.05;;;5.47;;
35530;SDS011;21637;53.352;-6.356;2024-03-07T08:08:47;16.75;;;5.65;;
35530;SDS011;21637;53.352;-6.356;2024-03-07T08:11:13;16.02;;;5.65;;
35530;SDS011;21637;53.352;-6.356;2024-03-07T08:13:40;17.48;;;5.85;;
35530;SDS011;21637;53.352;-6.356;2024-03-07T08:16:06;11.90;;;5.63;;
35530;SDS011;21637;53.352;-6.356;2024-03-07T08:18:31;17.00;;;6.22;;
35530;SDS011;21637;53.352;-6.356;2024-03-07T08:20:57;22.05;;;5.97;;
35530;SDS011;21637;53.352;-6.356;2024-03-07T08:23:23;14.35;;;6.18;;
35530;SDS011;21637;53.352;-6.356;2024-03-07T08:25:54;13.55;;;5.90;;
35530;SDS011;21637;53.352;-6.356;2024-03-07T08:28:20;14.55;;;5.75;;
35530;SDS011;21637;53.352;-6.356;2024-03-07T08:30:46;17.48;;;6.47;;
35530;SDS011;21637;53.352;-6.356;2024-03-07T08:33:11;17.92;;;6.18;;
35530;SDS011;21637;53.352;-6.356;2024-03-07T08:35:38;19.73;;;7.20;;
35530;SDS011;21637;53.352;-6.356;2024-03-07T08:38:04;17.13;;;6.63;;
35530;SDS011;21637;53.352;-6.356;2024-03-07T08:40:30;11.07;;;5.53;;
35530;SDS011;21637;53.352;-6.356;2024-03-07T08:42:57;16.88;;;7.00;;
35530;SDS011;21637;53.352;-6.356;2024-03-07T08:45:27;14.70;;;5.93;;
35530;SDS011;21637;53.352;-6.356;2024-03-07T08:47:54;15.07;;;6.18;;
35530;SDS011;21637;53.352;-6.356;2024-03-07T08:50:21;14.18;;;6.15;;
35530;SDS011;21637;53.352;-6.356;2024-03-07T08:52:48;14.75;;;6.25;;
35530;SDS011;21637;53.352;-6.356;2024-03-07T08:55:15;15.63;;;6.43;;
35530;SDS011;21637;53.352;-6.356;2024-03-07T08:57:42;17.40;;;6.63;;
35530;SDS011;21637;53.352;-6.356;2024-03-07T09:00:11;13.98;;;6.70;;
35530;SDS011;21637;53.352;-6.356;2024-03-07T09:02:47;13.10;;;5.43;;
35530;SDS011;21637;53.352;-6.356;2024-03-07T09:05:15;15.98;;;5.97;;
35530;SDS011;21637;53.352;-6.356;2024-03-07T09:07:41;12.68;;;6.05;;
35530;SDS011;21637;53.352;-6.356;2024-03-07T09:10:07;12.52;;;6.28;;
35530;SDS011;21637;53.352;-6.356;2024-03-07T09:12:34;11.77;;;5.70;;
35530;SDS011;21637;53.352;-6.356;2024-03-07T09:15:03;9.88;;;5.82;;
35530;SDS011;21637;53.352;-6.356;2024-03-07T09:17:29;12.63;;;6.30;;
35530;SDS011;21637;53.352;-6.356;2024-03-07T09:19:55;14.73;;;6.00;;
35530;SDS011;21637;53.352;-6.356;2024-03-07T09:22:21;10.65;;;5.47;;
35530;SDS011;21637;53.352;-6.356;2024-03-07T09:24:47;14.32;;;5.70;;
35530;SDS011;21637;53.352;-6.356;2024-03-07T09:27:13;15.48;;;5.90;;
35530;SDS011;21637;53.352;-6.356;2024-03-07T09:29:40;12.13;;;5.68;;
35530;SDS011;21637;53.352;-6.356;2024-03-07T09:32:06;12.48;;;5.55;;
35530;SDS011;21637;53.352;-6.356;2024-03-07T09:34:33;15.95;;;5.95;;
35530;SDS011;21637;53.352;-6.356;2024-03-07T09:37:01;20.58;;;6.20;;
35530;SDS011;21637;53.352;-6.356;2024-03-07T09:39:27;12.73;;;6.15;;
35530;SDS011;21637;53.352;-6.356;2024-03-07T09:41:53;14.00;;;5.93;;
35530;SDS011;21637;53.352;-6.356;2024-03-07T09:44:20;11.82;;;5.80;;
35530;SDS011;21637;53.352;-6.356;2024-03-07T09:46:51;13.52;;;5.97;;
35530;SDS011;21637;53.352;-6.356;2024-03-07T09:49:19;14.93;;;5.75;;
35530;SDS011;21637;53.352;-6.356;2024-03-07T09:51:46;12.63;;;5.80;;
35530;SDS011;21637;53.352;-6.356;2024-03-07T09:54:17;12.88;;;5.82;;
35530;SDS011;21637;53.352;-6.356;2024-03-07T09:56:44;15.25;;;5.82;;
35530;SDS011;21637;53.352;-6.356;2024-03-07T09:59:11;16.50;;;6.70;;
35530;SDS011;21637;53.352;-6.356;2024-03-07T10:01:43;14.10;;;6.60;;
35530;SDS011;21637;53.352;-6.356;2024-03-07T10:04:12;12.60;;;6.50;;
35530;SDS011;21637;53.352;-6.356;2024-03-07T10:06:40;16.83;;;6.60;;
35530;SDS011;21637;53.352;-6.356;2024-03-07T10:09:06;13.48;;;6.28;;
35530;SDS011;21637;53.352;-6.356;2024-03-07T10:11:33;16.48;;;6.55;;
35530;SDS011;21637;53.352;-6.356;2024-03-07T10:14:01;14.60;;;6.82;;
35530;SDS011;21637;53.352;-6.356;2024-03-07T10:16:29;14.27;;;7.97;;
35530;SDS011;21637;53.352;-6.356;2024-03-07T10:18:57;13.73;;;7.13;;
35530;SDS011;21637;53.352;-6.356;2024-03-07T10:21:26;14.30;;;7.28;;
35530;SDS011;21637;53.352;-6.356;2024-03-07T10:24:03;19.02;;;8.02;;
35530;SDS011;21637;53.352;-6.356;2024-03-07T10:26:36;14.77;;;7.35;;
35530;SDS011;21637;53.352;-6.356;2024-03-07T10:29:03;18.67;;;8.05;;
35530;SDS011;21637;53.352;-6.356;2024-03-07T10:31:31;18.27;;;8.40;;
35530;SDS011;21637;53.352;-6.356;2024-03-07T10:34:01;18.35;;;9.07;;
35530;SDS011;21637;53.352;-6.356;2024-03-07T10:36:28;16.65;;;7.72;;
35530;SDS011;21637;53.352;-6.356;2024-03-07T10:38:59;13.63;;;7.63;;
35530;SDS011;21637;53.352;-6.356;2024-03-07T10:41:44;15.05;;;7.95;;
35530;SDS011;21637;53.352;-6.356;2024-03-07T10:46:52;14.65;;;8.60;;
35530;SDS011;21637;53.352;-6.356;2024-03-07T10:49:19;22.27;;;8.20;;
35530;SDS011;21637;53.352;-6.356;2024-03-07T10:52:01;15.77;;;8.15;;
35530;SDS011;21637;53.352;-6.356;2024-03-07T10:55:29;13.32;;;7.50;;
35530;SDS011;21637;53.352;-6.356;2024-03-07T11:00:19;16.10;;;7.93;;
35530;SDS011;21637;53.352;-6.356;2024-03-07T11:03:01;17.20;;;7.63;;
35530;SDS011;21637;53.352;-6.356;2024-03-07T11:05:32;13.55;;;7.32;;
35530;SDS011;21637;53.352;-6.356;2024-03-07T11:07:58;16.73;;;7.78;;
35530;SDS011;21637;53.352;-6.356;2024-03-07T11:10:28;13.60;;;7.20;;
35530;SDS011;21637;53.352;-6.356;2024-03-07T11:12:56;15.48;;;7.28;;
35530;SDS011;21637;53.352;-6.356;2024-03-07T11:15:24;14.93;;;7.32;;
35530;SDS011;21637;53.352;-6.356;2024-03-07T11:17:52;13.00;;;7.68;;
35530;SDS011;21637;53.352;-6.356;2024-03-07T11:20:23;18.02;;;7.50;;
35530;SDS011;21637;53.352;-6.356;2024-03-07T11:22:50;16.38;;;8.20;;
35530;SDS011;21637;53.352;-6.356;2024-03-07T11:25:18;18.25;;;8.27;;
35530;SDS011;21637;53.352;-6.356;2024-03-07T11:27:59;17.65;;;8.15;;
35530;SDS011;21637;53.352;-6.356;2024-03-07T11:30:27;17.02;;;8.10;;
35530;SDS011;21637;53.352;-6.356;2024-03-07T11:32:53;16.30;;;7.75;;
35530;SDS011;21637;53.352;-6.356;2024-03-07T11:35:32;12.63;;;8.75;;
35530;SDS011;21637;53.352;-6.356;2024-03-07T11:38:01;14.67;;;8.43;;
35530;SDS011;21637;53.352;-6.356;2024-03-07T11:42:56;14.93;;;8.32;;
35530;SDS011;21637;53.352;-6.356;2024-03-07T11:45:25;13.63;;;8.35;;
35530;SDS011;21637;53.352;-6.356;2024-03-07T11:47:52;17.48;;;8.10;;
35530;SDS011;21637;53.352;-6.356;2024-03-07T11:50:32;16.05;;;8.43;;
35530;SDS011;21637;53.352;-6.356;2024-03-07T11:53:00;14.38;;;8.20;;
35530;SDS011;21637;53.352;-6.356;2024-03-07T11:55:27;16.27;;;8.13;;
35530;SDS011;21637;53.352;-6.356;2024-03-07T11:57:53;16.15;;;8.27;;
35530;SDS011;21637;53.352;-6.356;2024-03-07T12:00:19;17.38;;;8.02;;
35530;SDS011;21637;53.352;-6.356;2024-03-07T12:02:48;17.33;;;7.70;;
35530;SDS011;21637;53.352;-6.356;2024-03-07T12:05:14;17.98;;;7.90;;
35530;SDS011;21637;53.352;-6.356;2024-03-07T12:07:41;16.27;;;7.85;;
35530;SDS011;21637;53.352;-6.356;2024-03-07T12:10:08;15.68;;;8.27;;
35530;SDS011;21637;53.352;-6.356;2024-03-07T12:12:35;14.20;;;8.07;;
35530;SDS011;21637;53.352;-6.356;2024-03-07T12:15:04;16.42;;;8.52;;
35530;SDS011;21637;53.352;-6.356;2024-03-07T12:17:44;13.13;;;7.95;;
35530;SDS011;21637;53.352;-6.356;2024-03-07T12:20:11;17.27;;;8.60;;
35530;SDS011;21637;53.352;-6.356;2024-03-07T12:22:50;15.38;;;8.52;;
35530;SDS011;21637;53.352;-6.356;2024-03-07T12:25:19;14.45;;;7.80;;
35530;SDS011;21637;53.352;-6.356;2024-03-07T12:28:08;16.90;;;8.27;;
35530;SDS011;21637;53.352;-6.356;2024-03-07T12:30:57;16.73;;;8.93;;
35530;SDS011;21637;53.352;-6.356;2024-03-07T12:33:23;15.85;;;9.32;;
35530;SDS011;21637;53.352;-6.356;2024-03-07T12:35:50;15.77;;;8.82;;
35530;SDS011;21637;53.352;-6.356;2024-03-07T12:38:21;16.35;;;8.48;;
35530;SDS011;21637;53.352;-6.356;2024-03-07T12:41:01;19.55;;;8.52;;
35530;SDS011;21637;53.352;-6.356;2024-03-07T12:43:38;19.90;;;8.15;;
35530;SDS011;21637;53.352;-6.356;2024-03-07T12:46:07;14.25;;;8.43;;
35530;SDS011;21637;53.352;-6.356;2024-03-07T12:48:38;16.60;;;8.55;;
35530;SDS011;21637;53.352;-6.356;2024-03-07T12:51:03;14.20;;;8.13;;
35530;SDS011;21637;53.352;-6.356;2024-03-07T12:53:30;14.45;;;7.82;;
35530;SDS011;21637;53.352;-6.356;2024-03-07T12:55:56;12.27;;;7.45;;
35530;SDS011;21637;53.352;-6.356;2024-03-07T12:58:22;21.70;;;8.88;;
35530;SDS011;21637;53.352;-6.356;2024-03-07T13:00:51;21.88;;;8.15;;
35530;SDS011;21637;53.352;-6.356;2024-03-07T13:03:18;17.55;;;8.00;;
35530;SDS011;21637;53.352;-6.356;2024-03-07T13:05:44;17.33;;;9.02;;
35530;SDS011;21637;53.352;-6.356;2024-03-07T13:08:10;16.05;;;8.75;;
35530;SDS011;21637;53.352;-6.356;2024-03-07T13:10:41;15.50;;;8.02;;
35530;SDS011;21637;53.352;-6.356;2024-03-07T13:13:08;17.23;;;8.98;;
35530;SDS011;21637;53.352;-6.356;2024-03-07T13:15:37;14.85;;;8.90;;
35530;SDS011;21637;53.352;-6.356;2024-03-07T13:18:04;19.40;;;8.38;;
35530;SDS011;21637;53.352;-6.356;2024-03-07T13:20:30;17.63;;;8.93;;
35530;SDS011;21637;53.352;-6.356;2024-03-07T13:22:56;16.92;;;8.75;;
35530;SDS011;21637;53.352;-6.356;2024-03-07T13:25:24;15.98;;;9.25;;
35530;SDS011;21637;53.352;-6.356;2024-03-07T13:27:52;19.23;;;10.18;;
35530;SDS011;21637;53.352;-6.356;2024-03-07T13:30:20;18.95;;;9.90;;
35530;SDS011;21637;53.352;-6.356;2024-03-07T13:32:53;16.45;;;9.75;;
35530;SDS011;21637;53.352;-6.356;2024-03-07T13:35:20;18.60;;;10.55;;
35530;SDS011;21637;53.352;-6.356;2024-03-07T13:37:47;20.02;;;10.27;;
35530;SDS011;21637;53.352;-6.356;2024-03-07T13:40:14;15.32;;;8.98;;
35530;SDS011;21637;53.352;-6.356;2024-03-07T13:42:53;18.70;;;9.32;;
35530;SDS011;21637;53.352;-6.356;2024-03-07T13:45:23;16.48;;;9.75;;
35530;SDS011;21637;53.352;-6.356;2024-03-07T13:47:51;13.32;;;8.93;;
35530;SDS011;21637;53.352;-6.356;2024-03-07T13:50:20;22.30;;;9.52;;
35530;SDS011;21637;53.352;-6.356;2024-03-07T13:52:52;16.02;;;9.25;;
35530;SDS011;21637;53.352;-6.356;2024-03-07T14:07:32;21.27;;;10.20;;
35530;SDS011;21637;53.352;-6.356;2024-03-07T14:27:26;15.25;;;9.95;;
35530;SDS011;21637;53.352;-6.356;2024-03-07T14:30:16;17.85;;;11.55;;
35530;SDS011;21637;53.352;-6.356;2024-03-07T14:33:00;17.15;;;10.32;;
35530;SDS011;21637;53.352;-6.356;2024-03-07T14:35:31;19.77;;;9.70;;
35530;SDS011;21637;53.352;-6.356;2024-03-07T14:38:02;21.48;;;10.88;;
35530;SDS011;21637;53.352;-6.356;2024-03-07T14:40:47;20.13;;;11.95;;
35530;SDS011;21637;53.352;-6.356;2024-03-07T14:43:14;21.98;;;11.15;;
35530;SDS011;21637;53.352;-6.356;2024-03-07T14:45:42;17.88;;;11.32;;
35530;SDS011;21637;53.352;-6.356;2024-03-07T14:48:08;20.50;;;11.25;;
35530;SDS011;21637;53.352;-6.356;2024-03-07T14:50:37;20.10;;;11.25;;
35530;SDS011;21637;53.352;-6.356;2024-03-07T14:53:06;18.15;;;11.35;;
35530;SDS011;21637;53.352;-6.356;2024-03-07T14:55:32;20.63;;;11.50;;
35530;SDS011;21637;53.352;-6.356;2024-03-07T14:57:59;18.30;;;11.18;;
35530;SDS011;21637;53.352;-6.356;2024-03-07T15:00:26;21.95;;;11.40;;
35530;SDS011;21637;53.352;-6.356;2024-03-07T15:02:53;19.52;;;11.55;;